Flight Track Log - Related Links

Times and Time Zones

All times are in EDT time to prevent confusion due to time zone crossing. See the UAL5908 flight status page for this flight to view local times or setup timezone preferences in your user account.

Time Position Orientation Groundspeed Altitude Reporting Facility
EDT Latitude Longitude Course Direction KTS MPH feet Rate Location/Type
Sun 05:02:53 PM 38.9333 -77.5500 288° West 196 226 2,600  Level Potomac TRACON
Sun 05:03:53 PM 38.9167 -77.6333 256° West 254 292 4,700 2,409 Climbing Potomac TRACON
Sun 05:05:00 PM 38.8833 -77.7167 243° Southwest 260 299 7,700 2,551 Climbing Potomac TRACON
Sun 05:06:00 PM 38.8667 -77.8000 256° West 271 312 10,100 1,440 Climbing Potomac TRACON
Sun 05:07:05 PM 38.8594 -77.9242 266° West 295 339 10,700 1,104 Climbing Washington Center
Sun 05:08:00 PM 38.8194 -78.0608 288° West  Level FlightAware Approximate
Sun 05:08:05 PM 38.8572 -78.0389 269° West 309 356 12,400  Level Washington Center
Sun 05:09:05 PM 38.8547 -78.1586 269° West 327 376 14,100 1,600 Climbing Washington Center
Sun 05:10:05 PM 38.8542 -78.2786 270° West 332 382 15,600 1,450 Climbing Washington Center
Sun 05:11:05 PM 38.8536 -78.4014 270° West 337 388 17,000 1,250 Climbing Washington Center
Sun 05:12:05 PM 38.8506 -78.5264 268° West 348 400 18,100 850 Climbing Washington Center
Sun 05:13:05 PM 38.8494 -78.6544 269° West 353 406 18,700 750 Climbing Washington Center
Sun 05:14:05 PM 38.8481 -78.7822 269° West 353 406 19,600 1,100 Climbing Washington Center
Sun 05:15:05 PM 38.8467 -78.9128 269° West 365 420 20,900 1,350 Climbing Washington Center
Sun 05:16:05 PM 38.8450 -79.0433 269° West 365 420 22,300 1,450 Climbing Washington Center
Sun 05:17:05 PM 38.8436 -79.1686 269° West 365 420 23,800 1,550 Climbing Washington Center
Sun 05:18:05 PM 38.8256 -79.2850 259° West 359 413 25,400 1,400 Climbing Washington Center
Sun 05:19:05 PM 38.8072 -79.4011 259° West 348 400 26,600 1,150 Climbing Washington Center
Sun 05:20:05 PM 38.7847 -79.5172 256° West 343 395 27,700 1,200 Climbing Washington Center
Sun 05:21:05 PM 38.7664 -79.6333 259° West 343 395 29,000 1,150 Climbing Washington Center
Sun 05:22:05 PM 38.7436 -79.7494 256° West 338 389 30,000 500 Climbing Washington Center
Sun 05:23:05 PM 38.7228 -79.8681 257° West 333 383 30,000  Level Washington Center
Sun 05:24:05 PM 38.6972 -79.9969 256° West 354 407 30,000  Level Washington Center
Sun 05:25:41 PM 38.6581 -80.1919 256° West 389 448 30,000  Level Indianapolis Center
Sun 05:26:43 PM 38.6322 -80.3294 257° West 396 456 30,000  Level Indianapolis Center
Sun 05:27:45 PM 38.6056 -80.4683 256° West 398 458 30,000  Level Indianapolis Center
Sun 05:28:46 PM 38.5747 -80.6344 257° West 400 460 30,000  Level Indianapolis Center
Sun 05:29:48 PM 38.5475 -80.7733 256° West 402 463 30,000  Level Indianapolis Center
Sun 05:30:50 PM 38.5214 -80.9122 257° West 401 461 30,000  Level Indianapolis Center
Sun 05:31:52 PM 38.4939 -81.0522 256° West 403 464 30,000  Level Indianapolis Center
Sun 05:32:54 PM 38.4653 -81.1894 255° West 399 459 30,000  Level Indianapolis Center
Sun 05:33:56 PM 38.4383 -81.3294 256° West 402 463 30,000  Level Indianapolis Center
Sun 05:34:57 PM 38.4100 -81.4700 256° West 405 466 30,000  Level Indianapolis Center
Sun 05:35:59 PM 38.3833 -81.6089 256° West 399 459 30,000  Level Indianapolis Center
Sun 05:37:01 PM 38.3556 -81.7478 256° West 400 460 30,000 145 Level Indianapolis Center
Sun 05:38:03 PM 38.3175 -81.8822 250° West 402 463 30,300 484 Climbing Indianapolis Center
Sun 05:39:05 PM 38.2753 -82.0397 251° West 392 451 31,000 774 Climbing Indianapolis Center
Sun 05:40:07 PM 38.2369 -82.1689 249° West 389 448 31,900 488 Climbing Indianapolis Center
Sun 05:41:08 PM 38.2019 -82.2981 251° West 386 444 32,000 49 Climbing Indianapolis Center
Sun 05:42:10 PM 38.1650 -82.4269 250° West 388 447 32,000  Level Indianapolis Center
Sun 05:43:12 PM 38.1239 -82.5650 249° West 387 445 32,000  Level Indianapolis Center
Sun 05:44:14 PM 38.0864 -82.6956 250° West 392 451 32,000  Level Indianapolis Center
Sun 05:45:16 PM 38.0494 -82.8267 250° West 394 453 32,000  Level Indianapolis Center
Sun 05:46:18 PM 38.0111 -82.9578 250° West 397 457 32,000  Level Indianapolis Center
Sun 05:47:20 PM 37.9725 -83.0883 249° West 397 457 32,000 -194 Level Indianapolis Center
Sun 05:48:22 PM 37.9275 -83.2419 250° West 400 460 31,600 -726 Descending Indianapolis Center
Sun 05:49:24 PM 37.8894 -83.3697 249° West 391 450 30,500 -1,122 Descending Indianapolis Center
Sun 05:50:25 PM 37.8514 -83.4997 250° West 393 452 29,300 -1,171 Descending Indianapolis Center
Sun 05:51:27 PM 37.8111 -83.6328 249° West 405 466 28,100 -1,161 Descending Indianapolis Center
Sun 05:52:29 PM 37.7708 -83.7681 249° West 412 474 26,900 -1,210 Descending Indianapolis Center
Sun 05:53:31 PM 37.7233 -83.9253 249° West 412 474 25,600 -1,103 Descending Indianapolis Center
Sun 05:54:45 PM 37.6825 -84.0600 249° West 412 474 24,400 -1,445 Descending Indianapolis Center
Sun 05:55:48 PM 37.6389 -84.2128 250° West 399 459 22,300 -2,400 Descending Indianapolis Center
Sun 05:56:50 PM 37.6386 -84.3544 270° West 403 464 19,400 -2,758 Descending Indianapolis Center
Sun 05:57:52 PM 37.6425 -84.5144 272° West 394 453 16,600 -2,585 Descending Indianapolis Center
Sun 05:58:53 PM 37.6450 -84.6458 271° West 376 433 14,100 -2,098 Descending Indianapolis Center
Sun 05:59:55 PM 37.6494 -84.7725 273° West 364 419 12,300 -1,452 Descending Indianapolis Center
Sun 06:00:57 PM 37.6525 -84.9000 272° West 365 420 11,100 -919 Descending Indianapolis Center
Sun 06:01:59 PM 37.6969 -85.0103 297° West 361 415 10,400 -532 Descending Indianapolis Center
Sun 06:03:01 PM 37.7631 -85.1050 311° West 358 412 10,000 -194 Descending Indianapolis Center
Sun 06:04:03 PM 37.8347 -85.2058 312° West 353 406 10,000 -48 Level Indianapolis Center
Sun 06:05:06 PM 37.8933 -85.2853 313° West 309 356 9,900 -657 Descending Indianapolis Center
Sun 06:06:20 PM 37.9631 -85.3808 313° West 277 319 8,500 -1,149 Descending FAA TRACON SMA TRACON (SMA)
Sun 06:06:40 PM 37.9789 -85.4033 312° West 276 318 8,100 -1,024 Descending FAA TRACON SMA TRACON (SMA)
Sun 06:07:01 PM 37.9986 -85.4300 313° West 272 313 7,800 -1,024 Descending FAA TRACON SMA TRACON (SMA)
Sun 06:07:21 PM 38.0139 -85.4519 311° West 269 310 7,400 -1,105 Descending FAA TRACON SMA TRACON (SMA)
Sun 06:07:39 PM 38.0294 -85.4733 313° West 268 308 7,100 -1,077 Descending FAA TRACON SMA TRACON (SMA)
Sun 06:08:00 PM 38.0486 -85.5000 312° West 266 306 6,700 -1,024 Descending FAA TRACON SMA TRACON (SMA)
Sun 06:08:20 PM 38.0636 -85.5214 312° West 264 304 6,400 -900 Descending FAA TRACON SMA TRACON (SMA)
Sun 06:08:40 PM 38.0786 -85.5428 312° West 264 304 6,100 -750 Descending FAA TRACON SMA TRACON (SMA)
Sun 06:09:00 PM 38.0978 -85.5700 312° West 269 310 5,900 -308 Descending FAA TRACON SMA TRACON (SMA)
Sun 06:09:19 PM 38.1144 -85.5903 316° Northwest 269 310 5,900 -300 Level FAA TRACON SMA TRACON (SMA)
Sun 06:09:40 PM 38.1347 -85.6008 338° Northwest 265 305 5,700 -878 Descending FAA TRACON SMA TRACON (SMA)
Sun 06:10:00 PM 38.1611 -85.6125 341° North 259 298 5,300 -1,050 Descending FAA TRACON SMA TRACON (SMA)
Sun 06:10:20 PM 38.1819 -85.6217 341° North 258 297 5,000 -1,050 Descending FAA TRACON SMA TRACON (SMA)
Sun 06:10:40 PM 38.2075 -85.6339 339° North 254 292 4,600 -1,077 Descending FAA TRACON SMA TRACON (SMA)
Sun 06:10:59 PM 38.2281 -85.6436 340° North 256 295 4,300 -900 Descending FAA TRACON SMA TRACON (SMA)
Sun 06:11:20 PM 38.2486 -85.6533 340° North 256 295 4,000 -585 Descending FAA TRACON SMA TRACON (SMA)
Sun 06:11:40 PM 38.2739 -85.6650 340° North 251 289 3,900 -150 Descending FAA TRACON SMA TRACON (SMA)
Sun 06:12:00 PM 38.2936 -85.6742 340° North 250 288 3,900  Level FAA TRACON SMA TRACON (SMA)
Sun 06:12:20 PM 38.3139 -85.6836 340° North 250 288 3,900  Level FAA TRACON SMA TRACON (SMA)
Sun 06:12:39 PM 38.3392 -85.6956 340° North 250 288 3,900  Level FAA TRACON SMA TRACON (SMA)
Sun 06:13:00 PM 38.3575 -85.7075 333° Northwest 248 285 3,900 -439 Level FAA TRACON SMA TRACON (SMA)
Sun 06:13:20 PM 38.3667 -85.7297 298° West 248 285 3,600 -1,050 Descending FAA TRACON SMA TRACON (SMA)
Sun 06:13:40 PM 38.3611 -85.7600 257° West 236 272 3,200 -1,050 Descending FAA TRACON SMA TRACON (SMA)
Sun 06:14:00 PM 38.3481 -85.7767 225° Southwest 229 264 2,900 -900 Descending FAA TRACON SMA TRACON (SMA)
Sun 06:14:20 PM 38.3300 -85.7792 186° South 224 258 2,600 -750 Descending FAA TRACON SMA TRACON (SMA)
Sun 06:14:40 PM 38.3094 -85.7706 162° South 208 239 2,400 -300 Descending FAA TRACON SMA TRACON (SMA)
Sun 06:15:00 PM 38.2922 -85.7669 171° South 201 231 2,400 -308 Level FAA TRACON SMA TRACON (SMA)
Sun 06:15:19 PM 38.2764 -85.7619 166° South 195 224 2,200 -750 Descending FAA TRACON SMA TRACON (SMA)
Sun 06:15:40 PM 38.2592 -85.7558 164° South 172 198 1,900 -818 Descending FAA TRACON SMA TRACON (SMA)
Sun 06:16:03 PM 38.2439 -85.7508 166° South 148 170 1,600 -558 Descending FAA TRACON SMA TRACON (SMA)
Sun 06:16:23 PM 38.2325 -85.7469 165° South 139 160 1,500 -649 Descending FAA TRACON SMA TRACON (SMA)
Sun 06:16:40 PM 38.2211 -85.7431 165° South 136 157 1,200 -811 Descending FAA TRACON SMA TRACON (SMA)
Sun 06:17:00 PM 38.2094 -85.7389 164° South 139 160 1,000 -750 Descending FAA TRACON SMA TRACON (SMA)
Sun 06:17:20 PM 38.1956 -85.7342 165° South 138 159 700 -615 Descending FAA TRACON SMA TRACON (SMA)
Sun 06:17:39 PM 38.1897 -85.7325 167° South 137 158 600 -316 Descending FAA TRACON SMA TRACON (SMA)

Login

Don't have an account? Register now (free) for customized features, flight alerts, and more!